createdAt,value
2018-06-10T00:00:17.012Z,28.83
2018-06-10T00:01:20.807Z,65.10
2018-06-10T00:02:26.651Z,35.15
2018-06-10T00:03:40.555Z,31.27
2018-06-10T00:04:44.892Z,38.00
2018-06-10T00:05:49.798Z,40.08
2018-06-10T00:06:57.626Z,38.77
2018-06-10T00:08:05.211Z,37.40
2018-06-10T00:09:10.112Z,36.23
2018-06-10T00:10:14.450Z,34.03
2018-06-10T00:11:19.343Z,47.58
2018-06-10T00:12:25.554Z,27.27
2018-06-10T00:13:33.979Z,27.75
2018-06-10T00:14:38.544Z,33.15
2018-06-10T00:15:46.693Z,29.63
2018-06-10T00:16:51.140Z,30.68
2018-06-10T00:17:55.870Z,25.48
2018-06-10T00:18:59.830Z,25.43
2018-06-10T00:20:06.449Z,22.40
2018-06-10T00:21:12.799Z,24.30
2018-06-10T00:23:34.444Z,20.45
2018-06-10T00:24:39.429Z,22.22
2018-06-10T00:25:44.213Z,20.80
2018-06-10T00:26:50.204Z,21.75
2018-06-10T00:27:54.426Z,20.95
2018-06-10T00:29:05.072Z,22.55
2018-06-10T00:30:09.201Z,21.75
2018-06-10T00:31:13.196Z,20.10
2018-06-10T00:32:18.089Z,20.52
2018-06-10T00:33:22.011Z,21.00
2018-06-10T00:34:26.241Z,23.42
2018-06-10T00:35:30.153Z,23.60
2018-06-10T00:36:34.841Z,24.92
2018-06-10T00:37:39.595Z,26.42
2018-06-10T00:38:46.693Z,27.42
2018-06-10T00:39:50.518Z,26.30
2018-06-10T00:40:55.080Z,26.48
2018-06-10T00:41:59.274Z,26.50
2018-06-10T00:43:04.900Z,26.30
2018-06-10T00:44:08.858Z,26.30
2018-06-10T00:45:13.130Z,24.77
2018-06-10T00:46:17.182Z,25.08
2018-06-10T00:47:21.366Z,25.23
2018-06-10T00:48:26.197Z,24.65
2018-06-10T00:49:30.181Z,25.50
2018-06-10T00:50:34.983Z,66.55
2018-06-10T00:51:39.611Z,40.35
2018-06-10T00:52:44.875Z,29.45
2018-06-10T00:53:49.362Z,27.40
2018-06-10T00:54:54.006Z,27.73
2018-06-10T00:55:57.765Z,27.85
2018-06-10T00:57:04.905Z,26.33
2018-06-10T00:58:13.074Z,23.77
2018-06-10T00:59:16.983Z,24.10
2018-06-10T01:00:23.590Z,24.92
2018-06-10T01:01:34.596Z,24.37
2018-06-10T01:02:39.556Z,24.77
2018-06-10T01:03:44.545Z,24.45
2018-06-10T01:04:49.242Z,25.20
2018-06-10T01:05:53.850Z,26.37
2018-06-10T01:06:58.616Z,25.57
2018-06-10T01:08:02.942Z,26.33
2018-06-10T01:09:09.188Z,24.07
2018-06-10T01:10:13.909Z,22.93
2018-06-10T01:11:17.715Z,21.70
2018-06-10T01:12:22.135Z,23.20
2018-06-10T01:13:28.780Z,24.92
2018-06-10T01:14:33.293Z,25.32
2018-06-10T01:15:37.688Z,24.27
2018-06-10T01:16:42.244Z,25.35
2018-06-10T01:17:47.783Z,25.82
2018-06-10T01:18:51.530Z,25.72
2018-06-10T01:19:56.000Z,25.32
2018-06-10T01:20:59.769Z,26.37
2018-06-10T01:22:04.049Z,24.57
2018-06-10T01:23:09.505Z,25.00
2018-06-10T01:24:13.336Z,24.87
2018-06-10T01:25:17.266Z,24.95
2018-06-10T01:26:26.440Z,25.97
2018-06-10T01:27:30.584Z,26.62
2018-06-10T01:28:34.332Z,26.60
2018-06-10T01:29:39.335Z,26.95
2018-06-10T01:31:45.106Z,29.30
2018-06-10T01:32:49.063Z,28.45
2018-06-10T01:33:54.758Z,30.48
2018-06-10T01:35:01.125Z,29.42
2018-06-10T01:36:05.069Z,32.55
2018-06-10T01:37:09.161Z,34.50
2018-06-10T01:38:13.133Z,36.63
2018-06-10T01:39:19.164Z,35.52
2018-06-10T01:40:24.879Z,36.60
2018-06-10T01:41:29.121Z,36.77
2018-06-10T01:42:35.438Z,35.43
2018-06-10T01:43:39.216Z,37.40
2018-06-10T01:44:43.586Z,39.25
2018-06-10T01:45:47.395Z,38.88
2018-06-10T01:46:52.357Z,41.23
2018-06-10T01:47:57.505Z,39.83
2018-06-10T01:49:03.941Z,36.80
2018-06-10T01:50:09.740Z,38.45
2018-06-10T01:51:14.318Z,37.03
2018-06-10T01:52:18.080Z,40.03
2018-06-10T01:53:22.815Z,40.30
2018-06-10T01:54:27.272Z,39.27
2018-06-10T01:55:31.647Z,39.20
2018-06-10T01:56:35.546Z,39.70
2018-06-10T01:57:42.095Z,38.15
2018-06-10T01:58:48.021Z,37.48
2018-06-10T01:59:52.756Z,36.60
2018-06-10T02:00:56.496Z,36.15
2018-06-10T02:02:00.311Z,36.15
2018-06-10T02:03:04.419Z,35.70
2018-06-10T02:04:09.465Z,37.42
2018-06-10T02:05:13.536Z,35.90
2018-06-10T02:06:18.329Z,33.45
2018-06-10T02:07:25.128Z,35.20
2018-06-10T02:08:32.837Z,36.63
2018-06-10T02:09:38.048Z,34.38
2018-06-10T02:10:43.282Z,36.28
2018-06-10T02:13:01.710Z,32.65
2018-06-10T02:14:07.880Z,34.60
2018-06-10T02:15:12.302Z,34.70
2018-06-10T02:16:17.000Z,35.15
2018-06-10T02:17:21.538Z,34.55
2018-06-10T02:18:27.528Z,33.42
2018-06-10T02:19:33.710Z,34.78
2018-06-10T02:20:37.405Z,35.17
2018-06-10T02:21:42.135Z,33.98
2018-06-10T02:22:46.784Z,36.03
2018-06-10T02:23:51.508Z,35.43
2018-06-10T02:24:55.676Z,34.00
2018-06-10T02:26:02.504Z,32.33
2018-06-10T02:27:06.618Z,34.53
2018-06-10T02:28:11.544Z,34.75
2018-06-10T02:29:15.777Z,36.97
2018-06-10T02:30:20.172Z,34.70
2018-06-10T02:31:23.841Z,33.23
2018-06-10T02:32:28.308Z,32.23
2018-06-10T02:33:33.553Z,35.13
2018-06-10T02:34:38.212Z,36.37
2018-06-10T02:35:41.884Z,35.85
2018-06-10T02:36:47.588Z,32.60
2018-06-10T02:37:51.381Z,31.07
2018-06-10T02:38:56.382Z,30.05
2018-06-10T02:40:01.343Z,29.45
2018-06-10T02:41:05.065Z,26.87
2018-06-10T02:42:10.538Z,26.35
2018-06-10T02:43:15.902Z,25.90
2018-06-10T02:44:19.622Z,26.20
2018-06-10T02:45:24.961Z,25.10
2018-06-10T02:46:30.598Z,28.27
2018-06-10T02:47:36.739Z,28.07
2018-06-10T02:48:41.579Z,27.10
2018-06-10T02:49:46.028Z,28.10
2018-06-10T02:50:50.738Z,30.00
2018-06-10T02:51:54.675Z,27.87
2018-06-10T02:52:59.934Z,29.75
2018-06-10T02:54:05.434Z,32.80
2018-06-10T02:55:09.502Z,30.02
2018-06-10T02:56:13.278Z,30.50
2018-06-10T02:57:18.305Z,30.57
2018-06-10T02:58:23.314Z,28.92
2018-06-10T02:59:27.700Z,27.35
2018-06-10T03:00:31.467Z,27.15
2018-06-10T03:01:35.684Z,29.63
2018-06-10T03:02:40.197Z,30.90
2018-06-10T03:03:45.175Z,32.33
2018-06-10T03:04:49.917Z,32.98
2018-06-10T03:05:53.663Z,34.05
2018-06-10T03:06:57.744Z,32.38
2018-06-10T03:08:01.726Z,30.68
2018-06-10T03:09:10.182Z,29.17
2018-06-10T03:10:15.972Z,31.65
2018-06-10T03:11:28.715Z,75.10
2018-06-10T03:12:33.368Z,79.85
2018-06-10T03:13:42.792Z,42.48
2018-06-10T03:14:47.163Z,42.95
2018-06-10T03:15:53.236Z,37.88
2018-06-10T03:16:58.423Z,29.20
2018-06-10T03:18:04.731Z,29.45
2018-06-10T03:19:11.109Z,32.10
2018-06-10T03:20:15.831Z,30.62
2018-06-10T03:21:20.065Z,34.35
2018-06-10T03:22:26.523Z,34.92
2018-06-10T03:23:33.158Z,34.13
2018-06-10T03:24:37.253Z,34.83
2018-06-10T03:25:42.700Z,33.30
2018-06-10T03:26:47.411Z,34.58
2018-06-10T03:27:57.808Z,34.88
2018-06-10T03:29:02.453Z,37.85
2018-06-10T03:30:06.556Z,38.63
2018-06-10T03:31:10.463Z,37.95
2018-06-10T03:32:14.672Z,36.30
2018-06-10T03:33:19.378Z,37.08
2018-06-10T03:34:23.917Z,54.18
2018-06-10T03:35:29.980Z,39.27
2018-06-10T03:36:37.492Z,34.15
2018-06-10T03:37:42.241Z,32.90
2018-06-10T03:38:46.325Z,32.35
2018-06-10T03:39:50.674Z,32.40
2018-06-10T03:40:55.887Z,33.53
2018-06-10T03:42:00.215Z,36.48
2018-06-10T03:43:03.965Z,44.65
2018-06-10T03:44:07.739Z,39.88
2018-06-10T03:45:12.404Z,37.83
2018-06-10T03:46:16.266Z,36.83
2018-06-10T03:47:20.561Z,37.13
2018-06-10T03:48:24.453Z,35.40
2018-06-10T03:49:28.522Z,34.30
2018-06-10T03:50:33.811Z,35.35
2018-06-10T03:51:38.766Z,43.78
2018-06-10T03:52:45.594Z,42.43
2018-06-10T03:53:49.336Z,36.60
2018-06-10T03:54:53.148Z,31.10
2018-06-10T03:55:57.016Z,31.10
2018-06-10T03:57:01.939Z,33.15
2018-06-10T03:58:05.938Z,31.82
2018-06-10T03:59:09.698Z,32.60
2018-06-10T04:00:13.439Z,33.75
2018-06-10T04:01:20.443Z,33.75
2018-06-10T04:02:24.554Z,40.30
2018-06-10T04:03:29.387Z,38.92
2018-06-10T04:04:33.569Z,37.28
2018-06-10T04:05:37.393Z,35.20
2018-06-10T04:06:43.016Z,35.88
2018-06-10T04:07:47.764Z,35.68
2018-06-10T04:08:51.531Z,33.13
2018-06-10T04:09:55.651Z,31.25
2018-06-10T04:11:00.701Z,29.45
2018-06-10T04:12:04.820Z,29.07
2018-06-10T04:13:10.358Z,28.45
2018-06-10T04:14:15.399Z,29.52
2018-06-10T04:15:19.134Z,28.35
2018-06-10T04:16:23.237Z,30.63
2018-06-10T04:17:27.223Z,28.45
2018-06-10T04:18:33.057Z,26.85
2018-06-10T04:19:37.682Z,30.43
2018-06-10T04:20:41.590Z,29.80
2018-06-10T04:21:45.601Z,30.92
2018-06-10T04:22:50.723Z,28.95
2018-06-10T04:23:54.529Z,27.85
2018-06-10T04:24:58.279Z,27.62
2018-06-10T04:26:02.226Z,27.32
2018-06-10T04:27:06.068Z,25.17
2018-06-10T04:28:10.032Z,27.07
2018-06-10T04:29:13.771Z,28.25
2018-06-10T04:30:18.143Z,26.45
2018-06-10T04:31:21.937Z,26.48
2018-06-10T04:32:26.719Z,25.62
2018-06-10T04:33:31.037Z,25.62
2018-06-10T04:34:35.740Z,25.05
2018-06-10T04:35:39.473Z,24.20
2018-06-10T04:36:44.279Z,25.52
2018-06-10T04:37:48.077Z,24.67
2018-06-10T04:38:51.760Z,24.12
2018-06-10T04:39:55.656Z,23.20
2018-06-10T04:40:59.320Z,22.98
2018-06-10T04:42:02.991Z,22.93
2018-06-10T04:43:06.698Z,21.93
2018-06-10T04:44:10.759Z,28.75
2018-06-10T04:45:15.250Z,24.57
2018-06-10T04:46:19.073Z,23.62
2018-06-10T04:47:28.135Z,37.33
2018-06-10T04:48:31.979Z,28.27
2018-06-10T04:49:35.712Z,27.35
2018-06-10T04:50:40.730Z,31.65
2018-06-10T04:51:45.670Z,134.95
2018-06-10T04:52:50.936Z,44.60
2018-06-10T04:53:57.406Z,25.37
2018-06-10T04:55:02.097Z,21.97
2018-06-10T04:56:06.665Z,25.43
2018-06-10T04:57:10.399Z,23.55
2018-06-10T04:58:14.459Z,23.80
2018-06-10T04:59:19.058Z,23.70
2018-06-10T05:00:22.841Z,23.90
2018-06-10T05:01:26.671Z,22.15
2018-06-10T05:02:31.132Z,23.55
2018-06-10T05:03:35.074Z,20.90
2018-06-10T05:04:39.832Z,21.17
2018-06-10T05:05:44.143Z,21.70
2018-06-10T05:06:48.824Z,21.52
2018-06-10T05:07:54.304Z,22.40
2018-06-10T05:08:59.388Z,22.07
2018-06-10T05:10:03.295Z,19.60
2018-06-10T05:11:07.087Z,21.75
2018-06-10T05:12:11.968Z,21.37
2018-06-10T05:13:15.760Z,23.42
2018-06-10T05:14:19.511Z,23.27
2018-06-10T05:15:23.916Z,23.75
2018-06-10T05:16:27.736Z,22.65
2018-06-10T05:17:32.554Z,21.90
2018-06-10T05:18:36.289Z,26.07
2018-06-10T05:19:40.254Z,26.93
2018-06-10T05:20:44.116Z,26.40
2018-06-10T05:21:47.960Z,30.68
2018-06-10T05:22:51.709Z,28.60
2018-06-10T05:23:55.489Z,29.87
2018-06-10T05:24:59.267Z,27.50
2018-06-10T05:26:03.047Z,30.72
2018-06-10T05:27:06.804Z,29.00
2018-06-10T05:28:10.519Z,35.23
2018-06-10T05:29:14.343Z,29.92
2018-06-10T05:30:18.400Z,41.00
2018-06-10T05:31:22.174Z,29.60
2018-06-10T05:32:27.279Z,25.97
2018-06-10T05:33:31.066Z,24.60
2018-06-10T05:34:34.777Z,23.85
2018-06-10T05:35:38.581Z,21.50
2018-06-10T05:36:42.624Z,21.35
2018-06-10T05:37:46.609Z,23.10
2018-06-10T05:38:50.332Z,22.77
2018-06-10T05:39:54.680Z,20.97
2018-06-10T05:40:58.463Z,21.27
2018-06-10T05:42:02.493Z,20.48
2018-06-10T05:43:06.636Z,18.70
2018-06-10T05:44:10.451Z,20.30
2018-06-10T05:45:14.241Z,19.03
2018-06-10T05:46:19.535Z,19.80
2018-06-10T05:47:23.595Z,18.40
2018-06-10T05:48:28.438Z,18.48
2018-06-10T05:49:32.364Z,18.30
2018-06-10T05:50:36.124Z,17.05
2018-06-10T05:51:40.828Z,18.60
2018-06-10T05:52:45.609Z,25.72
2018-06-10T05:53:50.491Z,29.85
2018-06-10T05:54:54.598Z,30.37
2018-06-10T05:55:58.361Z,29.33
2018-06-10T05:57:02.349Z,24.80
2018-06-10T05:58:06.161Z,21.00
2018-06-10T05:59:09.956Z,25.87
2018-06-10T06:00:16.643Z,21.65
2018-06-10T06:01:21.155Z,21.10
2018-06-10T06:02:24.989Z,21.12
2018-06-10T06:03:29.179Z,20.43
2018-06-10T06:04:32.955Z,23.95
2018-06-10T06:05:37.049Z,21.55
2018-06-10T06:06:41.868Z,24.87
2018-06-10T06:07:46.717Z,23.20
2018-06-10T06:08:50.495Z,20.75
2018-06-10T06:09:54.360Z,20.88
2018-06-10T06:10:58.210Z,20.12
2018-06-10T06:12:02.896Z,19.32
2018-06-10T06:13:06.725Z,19.62
2018-06-10T06:14:10.490Z,22.40
2018-06-10T06:15:14.260Z,21.00
2018-06-10T06:16:18.882Z,26.07
2018-06-10T06:17:22.763Z,29.32
2018-06-10T06:18:26.515Z,27.37
2018-06-10T06:19:31.386Z,24.70
2018-06-10T06:20:35.170Z,24.55
2018-06-10T06:21:38.909Z,24.35
2018-06-10T06:22:42.656Z,27.07
2018-06-10T06:23:46.459Z,26.45
2018-06-10T06:24:50.565Z,23.15
2018-06-10T06:25:54.316Z,24.45
2018-06-10T06:26:58.521Z,24.90
2018-06-10T06:28:03.183Z,24.45
2018-06-10T06:29:07.106Z,20.93
2018-06-10T06:30:10.964Z,19.95
2018-06-10T06:31:14.717Z,20.92
2018-06-10T06:32:18.603Z,27.40
2018-06-10T06:33:22.485Z,28.47
2018-06-10T06:34:26.739Z,20.88
2018-06-10T06:35:30.535Z,21.30
2018-06-10T06:36:35.788Z,20.02
2018-06-10T06:37:39.975Z,21.25
2018-06-10T06:38:43.752Z,21.45
2018-06-10T06:39:47.587Z,20.27
2018-06-10T06:40:52.483Z,20.12
2018-06-10T06:41:56.252Z,18.82
2018-06-10T06:43:00.619Z,18.07
2018-06-10T06:44:05.288Z,19.15
2018-06-10T06:45:09.779Z,18.50
2018-06-10T06:46:14.428Z,20.10
2018-06-10T06:47:19.784Z,21.45
2018-06-10T06:48:23.590Z,23.20
2018-06-10T06:49:28.295Z,23.75
2018-06-10T06:50:32.856Z,21.10
2018-06-10T06:51:36.698Z,54.48
2018-06-10T06:52:41.414Z,25.45
2018-06-10T06:53:45.897Z,26.12
2018-06-10T06:54:50.559Z,28.65
2018-06-10T06:55:57.954Z,28.00
2018-06-10T06:57:02.866Z,25.77
2018-06-10T06:58:06.925Z,34.45
2018-06-10T06:59:11.422Z,29.70
2018-06-10T07:00:15.353Z,31.35
2018-06-10T07:01:19.095Z,28.70
2018-06-10T07:02:22.878Z,30.32
2018-06-10T07:03:28.908Z,34.23
2018-06-10T07:04:32.684Z,28.95
2018-06-10T07:05:37.980Z,33.30
2018-06-10T07:06:41.785Z,32.93
2018-06-10T07:07:46.228Z,29.90
2018-06-10T07:08:51.108Z,32.80
2018-06-10T07:09:56.064Z,35.78
2018-06-10T07:11:00.153Z,35.40
2018-06-10T07:12:05.815Z,37.05
2018-06-10T07:13:12.349Z,35.68
2018-06-10T07:14:16.669Z,39.37
2018-06-10T07:15:21.587Z,43.13
2018-06-10T07:16:26.239Z,39.53
2018-06-10T07:17:30.544Z,42.20
2018-06-10T07:18:35.207Z,45.38
2018-06-10T07:19:41.090Z,42.43
2018-06-10T07:20:45.850Z,37.20
2018-06-10T07:21:49.915Z,35.10
2018-06-10T07:22:58.356Z,43.68
2018-06-10T07:24:02.183Z,38.17
2018-06-10T07:25:06.043Z,37.58
2018-06-10T07:26:09.911Z,38.63
2018-06-10T07:27:13.752Z,37.35
2018-06-10T07:28:17.720Z,35.75
2018-06-10T07:29:22.174Z,39.20
2018-06-10T07:30:26.190Z,39.25
2018-06-10T07:31:31.967Z,39.63
2018-06-10T07:32:35.860Z,38.65
2018-06-10T07:33:41.569Z,37.00
2018-06-10T07:34:45.658Z,40.08
2018-06-10T07:35:49.631Z,40.67
2018-06-10T07:36:53.506Z,40.98
2018-06-10T07:37:58.627Z,39.67
2018-06-10T07:39:04.838Z,39.77
2018-06-10T07:40:09.363Z,40.15
2018-06-10T07:41:13.131Z,38.58
2018-06-10T07:42:18.106Z,40.33
2018-06-10T07:43:23.332Z,42.40
2018-06-10T07:44:28.453Z,90.32
2018-06-10T07:47:00.161Z,46.68
2018-06-10T07:48:06.723Z,44.23
2018-06-10T07:49:12.594Z,44.80
2018-06-10T07:50:17.267Z,44.55
2018-06-10T07:51:26.471Z,42.03
2018-06-10T07:54:58.109Z,44.00
2018-06-10T07:56:10.040Z,44.48
2018-06-10T07:57:13.791Z,44.10
2018-06-10T07:58:18.378Z,50.67
2018-06-10T07:59:22.627Z,48.10
2018-06-10T08:00:27.334Z,45.85
2018-06-10T08:01:31.781Z,46.95
2018-06-10T08:02:36.520Z,49.80
2018-06-10T08:03:40.493Z,70.28
2018-06-10T08:04:44.298Z,125.18
2018-06-10T08:05:48.384Z,76.57
2018-06-10T08:06:52.182Z,53.13
2018-06-10T08:07:56.172Z,47.03
2018-06-10T08:08:59.975Z,45.28
2018-06-10T08:10:03.805Z,45.75
2018-06-10T08:11:08.287Z,47.10
2018-06-10T08:12:12.089Z,49.05
2018-06-10T08:13:16.032Z,49.00
2018-06-10T08:14:20.006Z,48.87
2018-06-10T08:15:24.666Z,48.17
2018-06-10T08:16:28.953Z,47.78
2018-06-10T08:17:34.519Z,48.02
2018-06-10T08:18:40.054Z,47.53
2018-06-10T08:19:43.971Z,45.78
2018-06-10T08:20:47.805Z,47.95
2018-06-10T08:21:51.710Z,47.95
2018-06-10T08:22:56.862Z,49.08
2018-06-10T08:24:00.641Z,50.10
2018-06-10T08:25:06.076Z,50.40
2018-06-10T08:26:10.349Z,51.92
2018-06-10T08:27:14.634Z,54.53
2018-06-10T08:28:18.409Z,58.05
2018-06-10T08:29:22.202Z,62.15
2018-06-10T08:30:33.191Z,57.70
2018-06-10T08:31:38.457Z,57.75
2018-06-10T08:32:42.728Z,59.63
2018-06-10T08:33:46.876Z,61.42
2018-06-10T08:34:50.647Z,58.58
2018-06-10T08:35:55.650Z,61.15
2018-06-10T08:37:02.604Z,61.70
2018-06-10T08:38:08.324Z,62.65
2018-06-10T08:39:17.676Z,62.15
2018-06-10T08:40:22.199Z,60.95
2018-06-10T08:41:26.277Z,60.12
2018-06-10T08:42:30.054Z,61.00
2018-06-10T08:43:36.918Z,59.60
2018-06-10T08:44:41.050Z,59.20
2018-06-10T08:45:45.820Z,62.35
2018-06-10T08:46:49.590Z,60.77
2018-06-10T08:47:53.976Z,60.92
2018-06-10T08:48:59.306Z,60.38
2018-06-10T08:50:07.530Z,58.05
2018-06-10T08:51:14.491Z,58.45
2018-06-10T08:52:27.872Z,57.70
2018-06-10T08:53:31.854Z,56.20
2018-06-10T08:54:36.218Z,59.90
2018-06-10T08:55:40.327Z,58.55
2018-06-10T08:56:48.969Z,57.13
2018-06-10T08:57:52.794Z,71.20
2018-06-10T08:58:56.660Z,60.20
2018-06-10T09:00:01.577Z,59.08
2018-06-10T09:01:06.372Z,58.75
2018-06-10T09:02:10.633Z,62.40
2018-06-10T09:03:14.672Z,61.98
2018-06-10T09:04:18.822Z,62.15
2018-06-10T09:05:22.963Z,62.43
2018-06-10T09:06:27.693Z,63.50
2018-06-10T09:07:32.590Z,62.08
2018-06-10T09:08:36.789Z,58.92
2018-06-10T09:09:41.827Z,60.38
2018-06-10T09:11:56.808Z,61.85
2018-06-10T09:13:00.596Z,61.40
2018-06-10T09:14:04.755Z,59.77
2018-06-10T09:15:08.808Z,57.50
2018-06-10T09:16:12.633Z,57.48
2018-06-10T09:17:16.642Z,56.10
2018-06-10T09:18:20.661Z,56.00
2018-06-10T09:19:24.666Z,58.75
2018-06-10T09:20:28.703Z,58.13
2018-06-10T09:21:32.575Z,58.40
2018-06-10T09:22:36.573Z,58.30
2018-06-10T09:23:42.557Z,58.63
2018-06-10T09:24:47.890Z,60.45
2018-06-10T09:25:51.724Z,58.78
2018-06-10T09:26:55.593Z,61.00
2018-06-10T09:28:02.045Z,56.68
2018-06-10T09:29:07.449Z,57.15
2018-06-10T09:30:13.562Z,58.63
2018-06-10T09:31:18.511Z,58.05
2018-06-10T09:32:22.270Z,57.00
2018-06-10T09:33:26.231Z,56.95
2018-06-10T09:34:30.502Z,55.85
2018-06-10T09:35:34.636Z,54.63
2018-06-10T09:36:41.610Z,54.70
2018-06-10T09:37:47.079Z,54.80
2018-06-10T09:38:50.970Z,76.15
2018-06-10T09:39:58.507Z,58.17
2018-06-10T09:41:04.079Z,55.38
2018-06-10T09:42:08.814Z,54.18
2018-06-10T09:43:13.549Z,57.30
2018-06-10T09:44:17.550Z,60.65
2018-06-10T09:45:23.928Z,64.83
2018-06-10T09:46:27.720Z,66.42
2018-06-10T09:47:31.528Z,64.07
2018-06-10T09:48:35.519Z,63.33
2018-06-10T09:49:40.258Z,62.83
2018-06-10T09:50:44.475Z,64.07
2018-06-10T09:51:48.881Z,63.65
2018-06-10T09:52:54.763Z,64.05
2018-06-10T09:53:58.602Z,65.60
2018-06-10T09:55:05.717Z,64.20
2018-06-10T09:56:09.919Z,66.82
2018-06-10T09:57:18.078Z,65.87
2018-06-10T09:58:22.720Z,68.57
2018-06-10T09:59:26.668Z,71.62
2018-06-10T10:00:38.550Z,72.65
2018-06-10T10:01:42.325Z,75.05
2018-06-10T10:02:46.487Z,70.70
2018-06-10T10:03:52.907Z,80.20
2018-06-10T10:04:56.821Z,85.93
2018-06-10T10:06:03.031Z,90.90
2018-06-10T10:07:09.482Z,74.53
2018-06-10T10:08:14.377Z,68.75
2018-06-10T10:09:19.734Z,70.42
2018-06-10T10:10:23.673Z,68.10
2018-06-10T10:11:39.497Z,64.77
2018-06-10T10:12:48.810Z,67.17
2018-06-10T10:13:55.344Z,67.53
2018-06-10T10:14:59.154Z,65.90
2018-06-10T10:16:05.732Z,64.32
2018-06-10T10:17:11.266Z,68.67
2018-06-10T10:18:17.595Z,68.97
2018-06-10T10:19:23.820Z,67.60
2018-06-10T10:20:29.348Z,236.52
2018-06-10T10:21:33.572Z,91.47
2018-06-10T10:22:40.615Z,71.30
2018-06-10T10:23:44.575Z,69.30
2018-06-10T10:24:48.557Z,67.37
2018-06-10T10:25:52.460Z,72.03
2018-06-10T10:26:56.448Z,67.37
2018-06-10T10:28:00.655Z,64.47
2018-06-10T10:29:05.563Z,64.67
2018-06-10T10:30:10.752Z,63.27
2018-06-10T10:31:16.106Z,63.98
2018-06-10T10:32:20.494Z,67.40
2018-06-10T10:33:24.724Z,66.90
2018-06-10T10:34:28.692Z,69.35
2018-06-10T10:35:34.489Z,65.78
2018-06-10T10:36:39.794Z,69.53
2018-06-10T10:37:44.560Z,71.90
2018-06-10T10:38:49.913Z,71.53
2018-06-10T10:39:53.761Z,69.45
2018-06-10T10:40:57.830Z,66.92
2018-06-10T10:42:04.671Z,67.85
2018-06-10T10:43:11.148Z,66.42
2018-06-10T10:44:16.416Z,65.37
2018-06-10T10:45:20.898Z,66.33
2018-06-10T10:46:26.206Z,64.80
2018-06-10T10:47:33.909Z,64.35
2018-06-10T10:48:37.888Z,62.40
2018-06-10T10:49:43.913Z,67.60
2018-06-10T10:50:49.369Z,71.65
2018-06-10T10:51:53.868Z,67.50
2018-06-10T10:52:57.955Z,61.50
2018-06-10T10:54:03.808Z,63.83
2018-06-10T10:55:15.092Z,66.37
2018-06-10T10:56:18.934Z,63.15
2018-06-10T10:57:24.738Z,64.00
2018-06-10T10:58:28.546Z,64.32
2018-06-10T10:59:35.669Z,62.10
2018-06-10T11:00:40.188Z,64.45
2018-06-10T11:01:44.176Z,63.68
2018-06-10T11:02:52.221Z,95.83
2018-06-10T11:03:57.477Z,105.75
2018-06-10T11:05:04.293Z,70.05
2018-06-10T11:06:14.764Z,64.95
2018-06-10T11:07:28.159Z,62.73
2018-06-10T11:08:41.117Z,63.23
2018-06-10T11:09:45.766Z,61.80
2018-06-10T11:10:51.792Z,61.90
2018-06-10T11:11:57.565Z,62.90
2018-06-10T11:13:02.468Z,61.20
2018-06-10T11:14:13.466Z,63.90
2018-06-10T11:15:17.628Z,65.20
2018-06-10T11:16:22.985Z,63.23
2018-06-10T11:17:29.659Z,66.02
2018-06-10T11:18:33.695Z,68.75
2018-06-10T11:19:40.356Z,63.95
2018-06-10T11:20:46.535Z,61.73
2018-06-10T11:21:51.863Z,65.28
2018-06-10T11:22:56.688Z,62.03
2018-06-10T11:24:01.305Z,64.17
2018-06-10T11:25:08.255Z,62.48
2018-06-10T11:26:12.130Z,60.23
2018-06-10T11:27:16.188Z,63.73
2018-06-10T11:28:24.287Z,63.65
2018-06-10T11:29:29.625Z,66.02
2018-06-10T11:30:50.290Z,66.55
2018-06-10T11:31:55.208Z,66.45
2018-06-10T11:33:00.833Z,66.10
2018-06-10T11:34:05.361Z,65.73
2018-06-10T11:35:10.480Z,65.83
2018-06-10T11:36:16.071Z,69.22
2018-06-10T11:37:20.046Z,70.80
2018-06-10T11:38:24.488Z,70.12
2018-06-10T11:39:29.786Z,72.97
2018-06-10T11:40:33.686Z,77.08
2018-06-10T11:41:38.231Z,93.60
2018-06-10T11:42:42.183Z,68.95
2018-06-10T11:43:46.911Z,67.72
2018-06-10T11:44:52.536Z,64.50
2018-06-10T11:45:56.637Z,66.55
2018-06-10T11:47:01.370Z,65.92
2018-06-10T11:48:06.298Z,62.17
2018-06-10T11:49:13.622Z,67.42
2018-06-10T11:50:17.824Z,79.03
2018-06-10T11:51:22.000Z,79.55
2018-06-10T11:52:25.835Z,97.92
2018-06-10T11:53:29.703Z,96.25
2018-06-10T11:54:34.582Z,98.20
2018-06-10T11:55:38.531Z,82.25
2018-06-10T11:56:44.113Z,78.43
2018-06-10T11:57:47.917Z,117.97
2018-06-10T11:58:52.895Z,82.62
2018-06-10T11:59:56.702Z,74.53
2018-06-10T12:01:00.505Z,74.83
2018-06-10T12:02:05.489Z,71.72
2018-06-10T12:03:09.290Z,73.60
2018-06-10T12:04:13.434Z,73.42
2018-06-10T12:05:17.487Z,81.25
2018-06-10T12:06:22.035Z,77.00
2018-06-10T12:07:25.856Z,72.42
2018-06-10T12:08:30.188Z,67.32
2018-06-10T12:09:38.436Z,66.40
2018-06-10T12:10:42.914Z,63.87
2018-06-10T12:11:48.671Z,68.95
2018-06-10T12:12:52.856Z,68.95
2018-06-10T12:13:58.300Z,68.85
2018-06-10T12:15:02.918Z,69.17
2018-06-10T12:16:07.231Z,71.12
2018-06-10T12:17:12.078Z,70.85
2018-06-10T12:18:16.243Z,69.53
2018-06-10T12:19:22.396Z,70.22
2018-06-10T12:20:27.464Z,72.10
2018-06-10T12:21:36.713Z,70.52
2018-06-10T12:22:43.340Z,71.82
2018-06-10T12:23:47.664Z,154.05
2018-06-10T12:24:53.892Z,97.50
2018-06-10T12:25:57.854Z,86.22
2018-06-10T12:27:02.944Z,100.15
2018-06-10T12:28:14.679Z,95.77
2018-06-10T12:29:19.330Z,91.35
2018-06-10T12:30:23.811Z,85.92
2018-06-10T12:31:29.154Z,104.10
2018-06-10T12:32:34.729Z,100.30
2018-06-10T12:33:39.195Z,120.17
2018-06-10T12:34:43.123Z,82.80
2018-06-10T12:35:47.197Z,86.05
2018-06-10T12:36:53.032Z,77.37
2018-06-10T12:37:59.811Z,79.20
2018-06-10T12:39:07.326Z,79.23
2018-06-10T12:40:12.430Z,73.40
2018-06-10T12:41:18.196Z,75.70
2018-06-10T12:42:22.660Z,75.40
2018-06-10T12:43:27.085Z,77.35
2018-06-10T12:44:33.053Z,76.75
2018-06-10T12:45:37.002Z,72.82
2018-06-10T12:46:44.436Z,71.00
2018-06-10T12:48:58.075Z,69.53
2018-06-10T12:50:02.472Z,69.30
2018-06-10T12:51:06.533Z,72.35
2018-06-10T12:52:10.552Z,68.97
2018-06-10T12:53:14.770Z,70.10
2018-06-10T12:54:20.779Z,67.25
2018-06-10T12:55:31.191Z,67.67
2018-06-10T12:56:35.210Z,67.80
2018-06-10T12:57:39.724Z,65.75
2018-06-10T12:58:43.838Z,67.75
2018-06-10T12:59:48.003Z,65.85
2018-06-10T13:00:54.736Z,65.67
2018-06-10T13:01:58.563Z,73.95
2018-06-10T13:03:02.926Z,72.35
2018-06-10T13:04:06.893Z,94.13
2018-06-10T13:05:11.365Z,133.90
2018-06-10T13:06:16.168Z,89.07
2018-06-10T13:07:20.819Z,85.20
2018-06-10T13:08:25.317Z,91.63
2018-06-10T13:09:40.226Z,97.02
2018-06-10T13:10:45.875Z,82.85
2018-06-10T13:11:52.081Z,82.60
2018-06-10T13:12:58.825Z,85.72
2018-06-10T13:14:03.711Z,90.35
2018-06-10T13:15:10.740Z,101.40
2018-06-10T13:16:15.459Z,88.80
2018-06-10T13:17:19.871Z,87.80
2018-06-10T13:18:24.683Z,116.82
2018-06-10T13:19:30.712Z,86.15
2018-06-10T13:20:40.333Z,88.00
2018-06-10T13:21:46.418Z,77.32
2018-06-10T13:24:02.070Z,86.92
2018-06-10T13:26:42.077Z,89.52
2018-06-10T13:27:46.589Z,85.17
2018-06-10T13:28:54.990Z,75.63
2018-06-10T13:30:05.160Z,76.75
2018-06-10T13:31:16.808Z,76.97
2018-06-10T13:32:24.799Z,74.32
2018-06-10T13:33:30.838Z,75.70
2018-06-10T13:34:35.187Z,73.62
2018-06-10T13:35:52.514Z,74.15
2018-06-10T13:36:57.074Z,72.20
2018-06-10T13:38:09.765Z,67.32
2018-06-10T13:39:46.944Z,72.67
2018-06-10T13:40:53.496Z,65.10
2018-06-10T13:42:04.585Z,64.40
2018-06-10T13:43:10.117Z,55.87
2018-06-10T13:44:14.580Z,63.05
2018-06-10T13:45:22.317Z,61.05
2018-06-10T13:46:26.894Z,58.98
2018-06-10T13:47:36.356Z,60.53
2018-06-10T13:48:44.414Z,59.03
2018-06-10T13:49:49.377Z,58.73
2018-06-10T13:50:54.168Z,54.60
2018-06-10T13:52:00.105Z,52.90
2018-06-10T13:53:08.071Z,56.85
2018-06-10T13:54:19.922Z,52.17
2018-06-10T13:55:27.528Z,51.18
2018-06-10T13:56:34.381Z,50.03
2018-06-10T13:57:39.269Z,43.95
2018-06-10T13:58:50.146Z,44.65
2018-06-10T13:59:55.431Z,45.70
2018-06-10T14:00:59.486Z,40.20
2018-06-10T14:02:07.006Z,39.33
2018-06-10T14:03:14.708Z,37.90
2018-06-10T14:04:25.317Z,39.27
2018-06-10T14:05:32.196Z,41.98
2018-06-10T14:06:39.225Z,38.73
2018-06-10T14:07:55.605Z,45.48
2018-06-10T14:09:01.021Z,40.48
2018-06-10T14:10:05.894Z,39.25
2018-06-10T14:11:11.928Z,41.85